createdAt,value
2017-02-23T00:02:16.700Z,8.49
2017-02-23T00:07:13.432Z,8.58
2017-02-23T00:12:09.941Z,8.58
2017-02-23T00:17:06.152Z,8.69
2017-02-23T00:22:02.520Z,8.63
2017-02-23T00:26:59.475Z,8.66
2017-02-23T00:31:56.261Z,8.63
2017-02-23T00:36:52.664Z,8.56
2017-02-23T00:41:48.733Z,8.67
2017-02-23T00:46:45.286Z,8.64
2017-02-23T00:51:42.013Z,8.76
2017-02-23T00:56:38.430Z,8.69
2017-02-23T01:01:34.971Z,8.67
2017-02-23T01:06:31.427Z,8.78
2017-02-23T01:11:28.365Z,8.74
2017-02-23T01:16:25.573Z,8.70
2017-02-23T01:21:22.046Z,8.61
2017-02-23T01:26:19.494Z,8.60
2017-02-23T01:31:15.791Z,8.64
2017-02-23T01:36:12.310Z,8.63
2017-02-23T01:41:08.858Z,8.60
2017-02-23T01:46:04.747Z,8.46
2017-02-23T01:51:01.484Z,8.44
2017-02-23T01:55:58.279Z,8.53
2017-02-23T02:00:55.270Z,8.37
2017-02-23T02:05:52.610Z,8.28
2017-02-23T02:10:49.292Z,8.31
2017-02-23T02:15:45.422Z,8.27
2017-02-23T02:20:42.021Z,8.26
2017-02-23T02:25:38.347Z,8.27
2017-02-23T02:30:34.983Z,8.20
2017-02-23T02:35:33.323Z,8.19
2017-02-23T02:40:29.564Z,8.15
2017-02-23T02:45:27.502Z,8.26
2017-02-23T02:50:23.712Z,8.12
2017-02-23T02:55:20.063Z,8.13
2017-02-23T03:00:18.207Z,8.12
2017-02-23T03:05:14.534Z,8.23
2017-02-23T03:10:10.950Z,8.19
2017-02-23T03:15:07.498Z,8.20
2017-02-23T03:20:04.221Z,8.16
2017-02-23T03:25:00.492Z,8.23
2017-02-23T03:29:57.046Z,8.23
2017-02-23T03:34:55.170Z,8.08
2017-02-23T03:39:52.132Z,8.13
2017-02-23T03:44:48.818Z,8.15
2017-02-23T03:49:45.253Z,8.19
2017-02-23T03:54:41.546Z,8.18
2017-02-23T03:59:38.085Z,8.23
2017-02-23T04:04:35.446Z,8.18
2017-02-23T04:09:32.002Z,8.16
2017-02-23T04:14:29.319Z,8.06
2017-02-23T04:19:25.588Z,8.12
2017-02-23T04:24:22.567Z,8.13
2017-02-23T04:29:20.260Z,8.10
2017-02-23T04:34:16.363Z,8.10
2017-02-23T04:39:13.174Z,8.12
2017-02-23T04:44:09.327Z,7.90
2017-02-23T04:49:06.027Z,7.95
2017-02-23T04:54:03.215Z,7.95
2017-02-23T04:58:59.608Z,7.95
2017-02-23T05:03:56.025Z,7.87
2017-02-23T05:08:52.159Z,7.88
2017-02-23T05:13:49.280Z,7.91
2017-02-23T05:18:45.986Z,7.87
2017-02-23T05:23:42.326Z,7.88
2017-02-23T05:28:38.728Z,7.97
2017-02-23T05:33:35.288Z,8.13
2017-02-23T05:38:31.673Z,8.15
2017-02-23T05:43:28.123Z,8.28
2017-02-23T05:48:24.289Z,8.31
2017-02-23T05:53:21.707Z,8.66
2017-02-23T05:58:18.657Z,8.76
2017-02-23T06:03:15.219Z,8.92
2017-02-23T06:08:11.486Z,9.03
2017-02-23T06:13:09.373Z,9.16
2017-02-23T06:18:06.134Z,9.29
2017-02-23T06:23:02.538Z,9.21
2017-02-23T06:27:58.933Z,9.19
2017-02-23T06:32:55.491Z,9.29
2017-02-23T06:37:51.690Z,9.23
2017-02-23T06:42:49.035Z,9.14
2017-02-23T06:47:45.160Z,9.14
2017-02-23T06:52:41.411Z,9.16
2017-02-23T06:57:38.423Z,9.16
2017-02-23T07:02:34.621Z,9.11
2017-02-23T07:07:31.035Z,9.11
2017-02-23T07:12:27.776Z,9.11
2017-02-23T07:17:24.189Z,9.06
2017-02-23T07:22:20.618Z,9.11
2017-02-23T07:27:17.601Z,9.13
2017-02-23T07:32:16.566Z,9.00
2017-02-23T07:37:12.625Z,9.10
2017-02-23T07:42:09.250Z,8.97
2017-02-23T07:47:05.894Z,8.88
2017-02-23T07:52:01.796Z,8.88
2017-02-23T07:56:58.525Z,8.94
2017-02-23T08:01:54.826Z,8.92
2017-02-23T08:06:51.684Z,8.95
2017-02-23T08:11:48.524Z,8.91
2017-02-23T08:16:45.282Z,8.87
2017-02-23T08:21:41.778Z,8.79
2017-02-23T08:26:38.006Z,8.76
2017-02-23T08:31:34.304Z,8.85
2017-02-23T08:36:31.835Z,8.89
2017-02-23T08:41:27.991Z,8.87
2017-02-23T08:46:24.544Z,8.76
2017-02-23T08:51:20.764Z,8.84
2017-02-23T08:56:17.457Z,8.81
2017-02-23T09:01:15.112Z,8.71
2017-02-23T09:06:11.263Z,8.79
2017-02-23T09:11:10.266Z,8.82
2017-02-23T09:16:06.124Z,8.82
2017-02-23T09:21:02.669Z,8.84
2017-02-23T09:25:59.279Z,8.87
2017-02-23T09:30:55.791Z,8.85
2017-02-23T09:35:52.257Z,8.89
2017-02-23T09:40:48.817Z,8.79
2017-02-23T09:45:45.371Z,8.81
2017-02-23T09:50:42.323Z,8.78
2017-02-23T09:55:38.708Z,8.78
2017-02-23T10:00:36.513Z,8.73
2017-02-23T10:05:32.570Z,8.79
2017-02-23T10:10:29.065Z,8.81
2017-02-23T10:15:25.606Z,8.84
2017-02-23T10:20:22.010Z,8.84
2017-02-23T10:25:18.393Z,8.78
2017-02-23T10:30:14.983Z,8.81
2017-02-23T10:35:12.210Z,8.81
2017-02-23T10:40:08.824Z,8.73
2017-02-23T10:45:05.126Z,8.66
2017-02-23T10:50:01.879Z,8.73
2017-02-23T10:54:58.568Z,8.85
2017-02-23T10:59:55.512Z,8.87
2017-02-23T11:04:52.339Z,8.99
2017-02-23T11:09:49.115Z,9.02
2017-02-23T11:14:45.706Z,9.18
2017-02-23T11:19:42.690Z,9.21
2017-02-23T11:24:38.975Z,9.23
2017-02-23T11:29:35.938Z,9.25
2017-02-23T11:34:33.116Z,9.11
2017-02-23T11:39:29.264Z,8.99
2017-02-23T11:44:25.569Z,8.89
2017-02-23T11:49:22.119Z,8.87
2017-02-23T11:54:18.733Z,8.84
2017-02-23T11:59:15.157Z,8.81
2017-02-23T12:04:11.839Z,8.85
2017-02-23T12:09:08.335Z,8.66
2017-02-23T12:14:05.220Z,8.85
2017-02-23T12:19:01.846Z,8.91
2017-02-23T12:23:58.264Z,8.87
2017-02-23T12:28:54.775Z,8.97
2017-02-23T12:33:51.445Z,9.04
2017-02-23T12:38:47.760Z,9.03
2017-02-23T12:43:44.293Z,9.04
2017-02-23T12:48:41.681Z,9.10
2017-02-23T12:53:38.231Z,9.21
2017-02-23T12:58:34.578Z,9.16
2017-02-23T13:03:31.069Z,9.18
2017-02-23T13:08:27.629Z,9.06
2017-02-23T13:13:24.399Z,9.02
2017-02-23T13:18:20.944Z,8.99
2017-02-23T13:23:18.107Z,9.08
2017-02-23T13:28:14.788Z,9.10
2017-02-23T13:33:11.544Z,9.02
2017-02-23T13:38:08.050Z,9.28
2017-02-23T13:43:04.514Z,9.23
2017-02-23T13:48:01.099Z,9.23
2017-02-23T13:52:57.601Z,9.18
2017-02-23T13:57:54.888Z,9.02
2017-02-23T14:02:51.164Z,9.10
2017-02-23T14:07:48.016Z,9.34
2017-02-23T14:12:44.355Z,9.43
2017-02-23T14:17:40.934Z,9.56
2017-02-23T14:22:37.566Z,9.55
2017-02-23T14:27:34.279Z,9.98
2017-02-23T14:32:30.933Z,10.17
2017-02-23T14:37:27.485Z,10.31
2017-02-23T14:42:24.072Z,10.09
2017-02-23T14:47:20.451Z,10.04
2017-02-23T14:52:18.075Z,10.15
2017-02-23T14:57:14.833Z,10.13
2017-02-23T15:02:11.642Z,10.49
2017-02-23T15:07:08.028Z,10.30
2017-02-23T15:12:04.375Z,10.30
2017-02-23T15:17:03.460Z,10.41
2017-02-23T15:21:59.681Z,10.38
2017-02-23T15:26:56.115Z,10.38
2017-02-23T15:31:52.644Z,10.30
2017-02-23T15:36:49.218Z,10.51
2017-02-23T15:41:45.918Z,10.57
2017-02-23T15:46:42.533Z,10.57
2017-02-23T15:51:38.870Z,10.49
2017-02-23T15:56:35.232Z,10.30
2017-02-23T16:01:31.497Z,9.82
2017-02-23T16:06:27.862Z,9.87
2017-02-23T16:11:24.620Z,9.97
2017-02-23T16:16:20.790Z,9.98
2017-02-23T16:21:17.091Z,10.05
2017-02-23T16:26:13.165Z,10.10
2017-02-23T16:31:09.726Z,9.83
2017-02-23T16:36:06.138Z,9.40
2017-02-23T16:41:03.691Z,8.76
2017-02-23T16:45:59.872Z,8.67
2017-02-23T16:50:56.477Z,8.73
2017-02-23T16:55:52.723Z,8.12
2017-02-23T17:00:48.671Z,7.53
2017-02-23T17:05:44.932Z,7.48
2017-02-23T17:10:41.131Z,7.39
2017-02-23T17:15:38.274Z,7.28
2017-02-23T17:20:34.231Z,7.32
2017-02-23T17:25:30.592Z,7.35
2017-02-23T17:30:27.333Z,7.40
2017-02-23T17:35:23.648Z,7.57
2017-02-23T17:40:20.248Z,7.85
2017-02-23T17:45:16.729Z,7.90
2017-02-23T17:50:13.370Z,7.75
2017-02-23T17:55:09.964Z,7.70
2017-02-23T18:00:06.406Z,7.87
2017-02-23T18:05:02.932Z,7.97
2017-02-23T18:09:59.348Z,7.69
2017-02-23T18:14:56.648Z,7.72
2017-02-23T18:19:53.888Z,7.80
2017-02-23T18:24:50.099Z,7.95
2017-02-23T18:29:46.887Z,7.47
2017-02-23T18:34:43.324Z,7.15
2017-02-23T18:39:39.488Z,6.93
2017-02-23T18:44:35.828Z,6.89
2017-02-23T18:49:32.326Z,6.97
2017-02-23T18:54:29.433Z,7.25
2017-02-23T18:59:25.850Z,7.69
2017-02-23T19:04:22.032Z,7.63
2017-02-23T19:09:19.429Z,7.69
2017-02-23T19:14:15.855Z,7.58
2017-02-23T19:19:12.727Z,7.54
2017-02-23T19:24:09.217Z,7.58
2017-02-23T19:29:05.695Z,7.77
2017-02-23T19:34:02.435Z,7.90
2017-02-23T19:38:58.895Z,8.03
2017-02-23T19:43:55.083Z,7.85
2017-02-23T19:48:52.125Z,7.69
2017-02-23T19:53:48.338Z,7.61
2017-02-23T19:58:44.736Z,7.48
2017-02-23T20:03:41.070Z,7.54
2017-02-23T20:08:37.287Z,7.57
2017-02-23T20:13:33.796Z,7.82
2017-02-23T20:18:30.350Z,7.88
2017-02-23T20:23:27.185Z,8.09
2017-02-23T20:28:23.816Z,8.12
2017-02-23T20:33:19.931Z,7.77
2017-02-23T20:38:19.826Z,7.58
2017-02-23T20:43:15.209Z,6.81
2017-02-23T20:48:11.617Z,6.63
2017-02-23T20:53:07.809Z,6.54
2017-02-23T20:58:04.350Z,6.52
2017-02-23T21:03:00.619Z,6.78
2017-02-23T21:07:57.141Z,7.00
2017-02-23T21:12:53.867Z,7.14
2017-02-23T21:17:50.282Z,7.06
2017-02-23T21:22:47.303Z,7.23
2017-02-23T21:27:43.834Z,7.18
2017-02-23T21:32:40.347Z,7.13
2017-02-23T21:37:36.582Z,7.14
2017-02-23T21:42:33.019Z,6.96
2017-02-23T21:47:29.567Z,6.87
2017-02-23T21:52:25.865Z,6.72
2017-02-23T21:57:22.110Z,6.62
2017-02-23T22:02:18.312Z,6.62
2017-02-23T22:07:14.801Z,6.66
2017-02-23T22:12:11.083Z,6.64
2017-02-23T22:17:07.457Z,6.63
2017-02-23T22:22:03.906Z,6.64
2017-02-23T22:27:00.147Z,6.44
2017-02-23T22:31:56.455Z,6.27
2017-02-23T22:36:53.895Z,6.12
2017-02-23T22:41:49.953Z,5.98
2017-02-23T22:46:46.854Z,5.86
2017-02-23T22:51:42.998Z,5.82
2017-02-23T22:56:39.351Z,5.86
2017-02-23T23:01:35.570Z,5.69
2017-02-23T23:06:32.053Z,5.62
2017-02-23T23:11:28.413Z,5.54
2017-02-23T23:16:24.614Z,5.50
2017-02-23T23:21:20.965Z,5.43
2017-02-23T23:26:17.348Z,5.44
2017-02-23T23:31:13.649Z,5.35
2017-02-23T23:36:10.016Z,5.35
2017-02-23T23:41:06.205Z,5.17
2017-02-23T23:46:02.827Z,5.23
2017-02-23T23:50:59.074Z,5.07
2017-02-23T23:55:55.628Z,5.12
